createdAt,value
2023-04-06T00:01:01.693Z,96.10
2023-04-06T00:03:30.544Z,96.40
2023-04-06T00:05:59.289Z,96.70
2023-04-06T00:08:28.862Z,96.70
2023-04-06T00:10:57.588Z,96.60
2023-04-06T00:13:26.441Z,96.80
2023-04-06T00:15:55.005Z,97.00
2023-04-06T00:18:25.488Z,97.10
2023-04-06T00:20:54.174Z,97.10
2023-04-06T00:23:22.703Z,97.10
2023-04-06T00:25:51.555Z,97.40
2023-04-06T00:28:26.179Z,97.60
2023-04-06T00:30:56.425Z,97.60
2023-04-06T00:33:26.732Z,97.70
2023-04-06T00:35:55.471Z,97.70
2023-04-06T00:38:24.777Z,97.90
2023-04-06T00:40:53.350Z,97.90
2023-04-06T00:43:21.903Z,98.10
2023-04-06T00:45:50.594Z,97.90
2023-04-06T00:48:19.539Z,98.00
2023-04-06T00:50:49.508Z,98.00
2023-04-06T00:53:18.633Z,98.30
2023-04-06T00:55:47.180Z,98.30
2023-04-06T00:58:15.947Z,98.30
2023-04-06T01:00:44.632Z,98.00
2023-04-06T01:03:13.226Z,97.80
2023-04-06T01:05:43.247Z,97.60
2023-04-06T01:08:13.571Z,98.50
2023-04-06T01:10:42.418Z,98.90
2023-04-06T01:13:11.006Z,98.70
2023-04-06T01:15:40.385Z,98.60
2023-04-06T01:18:11.332Z,98.30
2023-04-06T01:20:40.120Z,98.20
2023-04-06T01:23:10.143Z,98.50
2023-04-06T01:25:38.689Z,98.60
2023-04-06T01:28:07.387Z,99.60
2023-04-06T01:30:35.972Z,99.90
2023-04-06T01:33:04.790Z,99.40
2023-04-06T01:35:33.442Z,99.10
2023-04-06T01:38:02.039Z,98.70
2023-04-06T01:40:32.099Z,98.50
2023-04-06T01:43:00.618Z,99.00
2023-04-06T01:45:29.224Z,98.70
2023-04-06T01:47:57.722Z,98.40
2023-04-06T01:50:26.289Z,98.00
2023-04-06T01:52:54.834Z,98.10
2023-04-06T01:55:23.477Z,97.90
2023-04-06T01:57:53.416Z,97.70
2023-04-06T02:00:22.169Z,97.70
2023-04-06T02:02:51.078Z,97.70
2023-04-06T02:05:19.711Z,97.70
2023-04-06T02:07:48.239Z,97.70
2023-04-06T02:10:17.420Z,97.70
2023-04-06T02:12:45.970Z,97.60
2023-04-06T02:15:16.109Z,97.70
2023-04-06T02:17:45.205Z,97.90
2023-04-06T02:20:13.582Z,98.60
2023-04-06T02:22:41.997Z,98.80
2023-04-06T02:25:10.868Z,98.70
2023-04-06T02:27:39.177Z,98.80
2023-04-06T02:30:09.559Z,99.00
2023-04-06T02:32:39.650Z,99.50
2023-04-06T02:35:09.041Z,99.70
2023-04-06T02:37:37.625Z,99.70
2023-04-06T02:40:07.308Z,99.70
2023-04-06T02:42:36.167Z,99.60
2023-04-06T02:45:05.322Z,99.50
2023-04-06T02:47:33.892Z,99.60
2023-04-06T02:50:04.053Z,99.60
2023-04-06T02:52:32.552Z,99.50
2023-04-06T02:55:01.091Z,99.40
2023-04-06T02:57:29.857Z,99.20
2023-04-06T02:59:58.372Z,99.00
2023-04-06T03:02:27.032Z,99.00
2023-04-06T03:04:55.628Z,99.10
2023-04-06T03:07:25.627Z,99.10
2023-04-06T03:09:54.288Z,99.00
2023-04-06T03:12:23.109Z,98.80
2023-04-06T03:14:51.638Z,98.90
2023-04-06T03:17:20.227Z,98.90
2023-04-06T03:19:48.801Z,98.90
2023-04-06T03:22:17.349Z,99.20
2023-04-06T03:24:47.369Z,99.50
2023-04-06T03:27:16.040Z,99.50
2023-04-06T03:29:44.611Z,99.40
2023-04-06T03:32:13.162Z,99.40
2023-04-06T03:34:42.068Z,99.40
2023-04-06T03:37:11.033Z,99.00
2023-04-06T03:39:39.708Z,98.80
2023-04-06T03:42:09.752Z,98.70
2023-04-06T03:44:38.355Z,98.60
2023-04-06T03:47:06.925Z,98.80
2023-04-06T03:49:35.765Z,99.00
2023-04-06T03:52:04.638Z,99.00
2023-04-06T03:54:33.187Z,99.30
2023-04-06T03:57:02.103Z,99.60
2023-04-06T03:59:32.167Z,99.90
2023-04-06T04:02:00.789Z,99.90
2023-04-06T04:04:29.430Z,99.90
2023-04-06T04:06:57.962Z,99.80
2023-04-06T04:09:28.481Z,99.60
2023-04-06T04:11:57.944Z,99.50
2023-04-06T04:14:26.509Z,99.70
2023-04-06T04:16:56.568Z,99.90
2023-04-06T04:19:25.282Z,99.90
2023-04-06T04:21:53.830Z,99.90
2023-04-06T04:24:22.448Z,99.90
2023-04-06T04:26:51.006Z,99.90
2023-04-06T04:29:22.230Z,99.90
2023-04-06T04:31:50.989Z,99.90
2023-04-06T04:34:21.987Z,99.90
2023-04-06T04:36:50.516Z,99.90
2023-04-06T04:39:19.115Z,99.90
2023-04-06T04:41:47.740Z,99.90
2023-04-06T04:44:16.713Z,99.90
2023-04-06T04:46:45.317Z,99.90
2023-04-06T04:49:13.809Z,99.90
2023-04-06T04:51:43.902Z,99.90
2023-04-06T04:54:12.462Z,99.90
2023-04-06T04:56:41.033Z,99.90
2023-04-06T04:59:09.776Z,99.90
2023-04-06T05:01:51.737Z,99.90
2023-04-06T05:04:25.086Z,99.90
2023-04-06T05:07:06.157Z,99.90
2023-04-06T05:09:35.087Z,99.90
2023-04-06T05:12:04.102Z,99.90
2023-04-06T05:14:32.746Z,99.90
2023-04-06T05:17:01.976Z,99.90
2023-04-06T05:19:30.589Z,99.90
2023-04-06T05:22:00.582Z,99.90
2023-04-06T05:24:29.294Z,99.90
2023-04-06T05:26:57.978Z,99.90
2023-04-06T05:29:26.501Z,99.90
2023-04-06T05:31:55.216Z,99.90
2023-04-06T05:34:24.023Z,99.90
2023-04-06T05:36:52.582Z,99.90
2023-04-06T05:39:22.528Z,99.90
2023-04-06T05:41:51.503Z,99.90
2023-04-06T05:44:20.044Z,99.90
2023-04-06T05:46:48.712Z,99.80
2023-04-06T05:49:17.337Z,99.80
2023-04-06T05:51:45.884Z,99.60
2023-04-06T05:54:14.446Z,99.50
2023-04-06T05:56:44.360Z,99.40
2023-04-06T05:59:12.897Z,99.10
2023-04-06T06:01:41.523Z,98.70
2023-04-06T06:04:10.135Z,98.20
2023-04-06T06:06:38.939Z,97.80
2023-04-06T06:09:07.789Z,97.60
2023-04-06T06:11:36.791Z,97.10
2023-04-06T06:14:06.895Z,97.20
2023-04-06T06:16:36.271Z,97.20
2023-04-06T06:19:04.876Z,96.70
2023-04-06T06:21:33.600Z,96.10
2023-04-06T06:24:02.153Z,95.90
2023-04-06T06:26:30.844Z,95.50
2023-04-06T06:28:59.374Z,95.10
2023-04-06T06:31:29.386Z,95.00
2023-04-06T06:33:57.984Z,94.70
2023-04-06T06:36:27.784Z,94.30
2023-04-06T06:38:56.431Z,94.40
2023-04-06T06:41:25.041Z,93.90
2023-04-06T06:43:53.655Z,94.10
2023-04-06T06:46:23.036Z,94.20
2023-04-06T06:48:53.100Z,93.70
2023-04-06T06:51:21.702Z,92.90
2023-04-06T06:53:50.885Z,92.90
2023-04-06T06:56:19.389Z,92.60
2023-04-06T06:58:47.731Z,92.20
2023-04-06T07:01:16.167Z,92.20
2023-04-06T07:03:44.609Z,91.90
2023-04-06T07:06:14.783Z,91.70
2023-04-06T07:08:43.409Z,91.60
2023-04-06T07:11:12.061Z,90.40
2023-04-06T07:13:40.823Z,90.00
2023-04-06T07:16:09.517Z,89.10
2023-04-06T07:18:38.144Z,89.10
2023-04-06T07:21:07.182Z,89.60
2023-04-06T07:23:37.181Z,88.70
2023-04-06T07:26:06.000Z,88.30
2023-04-06T07:28:34.662Z,87.40
2023-04-06T07:31:02.982Z,89.70
2023-04-06T07:33:31.649Z,86.20
2023-04-06T07:36:00.894Z,84.50
2023-04-06T07:38:29.378Z,86.70
2023-04-06T07:40:59.211Z,83.20
2023-04-06T07:43:27.637Z,80.40
2023-04-06T07:45:56.797Z,78.30
2023-04-06T07:48:25.136Z,77.30
2023-04-06T07:50:53.615Z,78.00
2023-04-06T07:53:22.008Z,77.40
2023-04-06T07:55:50.796Z,77.30
2023-04-06T07:58:20.560Z,77.10
2023-04-06T08:00:49.041Z,76.80
2023-04-06T08:03:18.081Z,76.10
2023-04-06T08:05:46.668Z,76.40
2023-04-06T08:08:15.057Z,73.50
2023-04-06T08:10:44.660Z,70.60
2023-04-06T08:13:13.029Z,68.60
2023-04-06T08:15:43.053Z,70.30
2023-04-06T08:18:12.158Z,67.60
2023-04-06T08:20:41.254Z,67.80
2023-04-06T08:23:10.527Z,63.50
2023-04-06T08:25:39.562Z,61.30
2023-04-06T08:28:08.655Z,59.50
2023-04-06T08:30:38.236Z,61.70
2023-04-06T08:33:08.298Z,60.50
2023-04-06T08:35:36.962Z,62.30
2023-04-06T08:38:05.917Z,63.20
2023-04-06T08:40:39.531Z,63.30
2023-04-06T08:43:15.139Z,60.50
2023-04-06T08:45:45.083Z,57.10
2023-04-06T08:48:16.640Z,55.80
2023-04-06T08:50:45.470Z,53.00
2023-04-06T08:53:14.235Z,54.50
2023-04-06T08:55:45.139Z,52.30
2023-04-06T08:58:17.313Z,51.70
2023-04-06T09:00:54.373Z,51.20
2023-04-06T09:03:26.741Z,50.80
2023-04-06T09:05:55.926Z,50.20
2023-04-06T09:08:24.551Z,49.80
2023-04-06T09:10:53.364Z,51.90
2023-04-06T09:13:22.023Z,49.90
2023-04-06T09:16:02.197Z,47.90
2023-04-06T09:18:33.413Z,48.50
2023-04-06T09:21:04.689Z,49.40
2023-04-06T09:23:33.992Z,48.10
2023-04-06T09:26:12.104Z,45.70
2023-04-06T09:28:49.801Z,45.20
2023-04-06T09:31:25.581Z,41.90
2023-04-06T09:33:56.688Z,44.20
2023-04-06T09:36:33.709Z,44.30
2023-04-06T09:39:04.340Z,42.50
2023-04-06T09:41:35.129Z,42.10
2023-04-06T09:44:08.852Z,40.70
2023-04-06T09:46:55.089Z,41.00
2023-04-06T09:49:32.562Z,40.30
2023-04-06T09:52:04.702Z,40.20
2023-04-06T09:54:34.323Z,38.50
2023-04-06T09:57:11.980Z,39.30
2023-04-06T09:59:52.927Z,38.20
2023-04-06T10:02:34.511Z,39.30
2023-04-06T10:05:11.958Z,39.10
2023-04-06T10:07:53.063Z,39.10
2023-04-06T10:10:28.281Z,39.10
2023-04-06T10:12:58.370Z,39.00
2023-04-06T10:15:27.353Z,39.50
2023-04-06T10:17:56.271Z,38.20
2023-04-06T10:20:33.725Z,38.50
2023-04-06T10:23:07.546Z,40.10
2023-04-06T10:25:37.968Z,43.30
2023-04-06T10:28:09.044Z,43.00
2023-04-06T10:30:44.060Z,42.50
2023-04-06T10:33:16.608Z,41.70
2023-04-06T10:35:46.929Z,42.50
2023-04-06T10:38:15.992Z,41.40
2023-04-06T10:40:45.712Z,38.50
2023-04-06T10:43:15.803Z,38.50
2023-04-06T10:45:44.774Z,39.10
2023-04-06T10:48:17.401Z,38.60
2023-04-06T10:50:53.458Z,38.10
2023-04-06T10:53:26.820Z,39.20
2023-04-06T10:55:58.050Z,38.00
2023-04-06T10:58:28.517Z,37.10
2023-04-06T11:00:57.899Z,36.70
2023-04-06T11:03:26.611Z,35.40
2023-04-06T11:05:56.619Z,35.60
2023-04-06T11:08:27.558Z,34.30
2023-04-06T11:11:07.947Z,34.90
2023-04-06T11:13:41.703Z,36.20
2023-04-06T11:16:15.514Z,35.10
2023-04-06T11:18:56.703Z,34.80
2023-04-06T11:21:38.233Z,35.60
2023-04-06T11:24:12.357Z,36.90
2023-04-06T11:26:44.402Z,35.90
2023-04-06T11:29:14.010Z,35.40
2023-04-06T11:31:44.899Z,35.70
2023-04-06T11:34:15.510Z,36.10
2023-04-06T11:36:47.770Z,35.70
2023-04-06T11:39:21.548Z,36.10
2023-04-06T11:41:50.968Z,37.00
2023-04-06T11:44:33.705Z,37.20
2023-04-06T11:47:03.064Z,36.60
2023-04-06T11:49:31.797Z,37.00
2023-04-06T11:52:03.170Z,36.70
2023-04-06T11:54:36.648Z,36.10
2023-04-06T11:57:06.449Z,36.80
2023-04-06T11:59:35.395Z,36.00
2023-04-06T12:02:05.213Z,36.90
2023-04-06T12:04:34.238Z,37.00
2023-04-06T12:07:04.685Z,37.00
2023-04-06T12:09:35.648Z,37.60
2023-04-06T12:12:04.708Z,36.80
2023-04-06T12:14:50.845Z,37.00
2023-04-06T12:17:20.684Z,37.40
2023-04-06T12:19:49.306Z,37.30
2023-04-06T12:22:20.347Z,37.90
2023-04-06T12:24:48.932Z,37.00
2023-04-06T12:27:17.579Z,37.70
2023-04-06T12:29:46.154Z,37.50
2023-04-06T12:32:14.882Z,36.80
2023-04-06T12:34:43.622Z,37.50
2023-04-06T12:37:12.345Z,37.90
2023-04-06T12:39:42.337Z,38.30
2023-04-06T12:42:11.358Z,38.60
2023-04-06T12:44:39.916Z,37.70
2023-04-06T12:47:08.932Z,37.60
2023-04-06T12:49:37.597Z,37.00
2023-04-06T12:52:06.635Z,37.30
2023-04-06T12:54:35.228Z,37.20
2023-04-06T12:57:05.567Z,35.30
2023-04-06T12:59:36.546Z,37.00
2023-04-06T13:02:06.587Z,37.70
2023-04-06T13:04:35.610Z,39.20
2023-04-06T13:07:04.309Z,37.20
2023-04-06T13:09:32.905Z,37.40
2023-04-06T13:12:02.094Z,38.50
2023-04-06T13:14:32.412Z,37.90
2023-04-06T13:17:01.230Z,38.50
2023-04-06T13:19:29.738Z,38.80
2023-04-06T13:21:58.294Z,39.60
2023-04-06T13:24:27.098Z,39.50
2023-04-06T13:26:55.686Z,39.70
2023-04-06T13:29:24.309Z,39.00
2023-04-06T13:31:54.456Z,39.50
2023-04-06T13:34:23.111Z,38.90
2023-04-06T13:36:51.748Z,38.70
2023-04-06T13:39:20.329Z,38.80
2023-04-06T13:41:48.990Z,38.80
2023-04-06T13:44:17.625Z,39.60
2023-04-06T13:46:46.174Z,40.20
2023-04-06T13:49:16.548Z,39.90
2023-04-06T13:51:45.197Z,39.80
2023-04-06T13:54:13.692Z,40.40
2023-04-06T13:56:42.118Z,40.60
2023-04-06T13:59:10.548Z,40.00
2023-04-06T14:01:39.975Z,40.60
2023-04-06T14:04:08.443Z,41.70
2023-04-06T14:06:39.541Z,40.50
2023-04-06T14:09:08.029Z,40.80
2023-04-06T14:11:37.979Z,42.90
2023-04-06T14:14:06.822Z,44.40
2023-04-06T14:16:35.471Z,41.20
2023-04-06T14:19:04.051Z,43.60
2023-04-06T14:21:32.867Z,41.60
2023-04-06T14:24:02.782Z,40.80
2023-04-06T14:26:31.466Z,42.20
2023-04-06T14:29:01.178Z,41.00
2023-04-06T14:31:29.875Z,41.10
2023-04-06T14:33:58.409Z,40.80
2023-04-06T14:36:28.472Z,41.70
2023-04-06T14:38:57.028Z,40.80
2023-04-06T14:41:28.194Z,40.70
2023-04-06T14:43:56.785Z,40.70
2023-04-06T14:46:25.522Z,41.40
2023-04-06T14:48:53.981Z,41.10
2023-04-06T14:51:22.943Z,41.20
2023-04-06T14:53:51.418Z,41.30
2023-04-06T14:56:24.085Z,42.10
2023-04-06T14:58:54.790Z,41.10
2023-04-06T15:01:23.395Z,42.10
2023-04-06T15:03:52.386Z,41.80
2023-04-06T15:06:21.840Z,42.50
2023-04-06T15:08:51.321Z,41.70
2023-04-06T15:11:19.874Z,41.90
2023-04-06T15:13:48.645Z,41.80
2023-04-06T15:16:18.496Z,42.20
2023-04-06T15:18:47.027Z,41.30
2023-04-06T15:21:15.578Z,41.10
2023-04-06T15:23:43.951Z,41.30
2023-04-06T15:26:12.452Z,41.70
2023-04-06T15:28:41.102Z,41.90
2023-04-06T15:31:35.959Z,41.80
2023-04-06T15:34:06.613Z,41.70
2023-04-06T15:36:35.134Z,41.80
2023-04-06T15:39:04.886Z,42.50
2023-04-06T15:41:33.885Z,42.30
2023-04-06T15:44:02.369Z,42.40
2023-04-06T15:46:32.249Z,42.60
2023-04-06T15:49:00.948Z,41.80
2023-04-06T15:51:30.279Z,42.10
2023-04-06T15:53:59.866Z,42.50
2023-04-06T15:56:28.412Z,42.50
2023-04-06T15:58:56.976Z,41.90
2023-04-06T16:01:25.491Z,41.90
2023-04-06T16:03:55.570Z,42.20
2023-04-06T16:06:24.098Z,42.60
2023-04-06T16:08:52.569Z,42.60
2023-04-06T16:11:21.361Z,42.90
2023-04-06T16:13:55.249Z,43.00
2023-04-06T16:16:24.610Z,43.60
2023-04-06T16:18:54.566Z,44.00
2023-04-06T16:21:23.261Z,43.40
2023-04-06T16:23:51.820Z,43.00
2023-04-06T16:26:20.348Z,43.20
2023-04-06T16:28:51.443Z,43.80
2023-04-06T16:31:24.754Z,43.20
2023-04-06T16:33:57.783Z,43.20
2023-04-06T16:36:28.058Z,43.70
2023-04-06T16:38:56.942Z,43.70
2023-04-06T16:41:25.644Z,43.70
2023-04-06T16:43:55.046Z,43.50
2023-04-06T16:46:23.507Z,43.40
2023-04-06T16:48:51.993Z,43.70
2023-04-06T16:51:21.898Z,44.10
2023-04-06T16:53:50.439Z,45.00
2023-04-06T16:56:19.028Z,45.20
2023-04-06T16:58:47.758Z,44.70
2023-04-06T17:01:23.885Z,45.30
2023-04-06T17:03:52.633Z,45.70
2023-04-06T17:06:23.184Z,45.20
2023-04-06T17:08:53.668Z,45.70
2023-04-06T17:11:28.088Z,46.10
2023-04-06T17:14:01.200Z,46.40
2023-04-06T17:16:29.743Z,46.70
2023-04-06T17:18:58.814Z,46.70
2023-04-06T17:21:28.787Z,46.50
2023-04-06T17:23:57.338Z,46.30
2023-04-06T17:26:26.230Z,46.50
2023-04-06T17:28:54.741Z,46.50
2023-04-06T17:31:23.437Z,46.50
2023-04-06T17:33:52.018Z,47.40
2023-04-06T17:36:21.716Z,46.00
2023-04-06T17:38:51.905Z,46.20
2023-04-06T17:41:20.453Z,46.30
2023-04-06T17:43:49.277Z,46.70
2023-04-06T17:46:17.856Z,46.80
2023-04-06T17:48:47.102Z,47.10
2023-04-06T17:51:18.946Z,47.30
2023-04-06T17:53:47.688Z,47.40
2023-04-06T17:56:17.562Z,47.80
2023-04-06T17:58:45.980Z,47.90
2023-04-06T18:01:14.747Z,47.90
2023-04-06T18:03:43.289Z,48.00
2023-04-06T18:06:14.042Z,48.20
2023-04-06T18:08:43.339Z,48.60
2023-04-06T18:11:21.704Z,48.70
2023-04-06T18:13:50.837Z,49.10
2023-04-06T18:16:21.086Z,49.20
2023-04-06T18:18:49.718Z,49.50
2023-04-06T18:21:18.348Z,49.70
2023-04-06T18:23:47.168Z,49.90
2023-04-06T18:26:22.628Z,50.10
2023-04-06T18:28:51.390Z,50.20
2023-04-06T18:31:21.626Z,50.30
2023-04-06T18:33:51.156Z,50.60
2023-04-06T18:36:20.487Z,50.40
2023-04-06T18:38:50.376Z,51.30
2023-04-06T18:41:21.115Z,50.90
2023-04-06T18:43:49.583Z,50.90
2023-04-06T18:46:20.670Z,51.10
2023-04-06T18:48:49.136Z,51.00
2023-04-06T18:51:17.688Z,51.20
2023-04-06T18:53:46.147Z,51.30
2023-04-06T18:56:15.998Z,51.40
2023-04-06T18:58:48.463Z,51.20
2023-04-06T19:01:25.257Z,51.40
2023-04-06T19:03:54.830Z,51.40
2023-04-06T19:06:24.340Z,51.60
2023-04-06T19:08:53.257Z,51.70
2023-04-06T19:11:23.275Z,51.80
2023-04-06T19:13:54.984Z,51.90
2023-04-06T19:16:23.847Z,52.20
2023-04-06T19:18:52.399Z,52.30
2023-04-06T19:21:23.227Z,52.20
2023-04-06T19:23:55.125Z,52.30
2023-04-06T19:26:27.307Z,52.70
2023-04-06T19:28:57.194Z,53.00
2023-04-06T19:31:27.048Z,53.00
2023-04-06T19:33:55.777Z,53.00
2023-04-06T19:36:24.243Z,52.90
2023-04-06T19:38:52.859Z,53.10
2023-04-06T19:41:21.650Z,53.20
2023-04-06T19:43:50.427Z,53.40
2023-04-06T19:46:21.442Z,53.60
2023-04-06T19:48:49.960Z,53.90
2023-04-06T19:51:18.659Z,54.50
2023-04-06T19:53:47.049Z,54.90
2023-04-06T19:56:16.329Z,54.90
2023-04-06T19:58:44.796Z,55.00
2023-04-06T20:01:13.225Z,55.40
2023-04-06T20:03:43.600Z,55.60
2023-04-06T20:06:12.161Z,55.60
2023-04-06T20:08:40.534Z,55.70
2023-04-06T20:11:09.050Z,55.80
2023-04-06T20:13:38.659Z,56.00
2023-04-06T20:16:07.990Z,56.00
2023-04-06T20:18:37.162Z,55.70
2023-04-06T20:21:07.082Z,55.90
2023-04-06T20:23:37.629Z,56.00
2023-04-06T20:26:09.177Z,56.40
2023-04-06T20:28:39.419Z,56.70
2023-04-06T20:31:08.684Z,56.80
2023-04-06T20:33:37.289Z,56.70
2023-04-06T20:36:07.650Z,56.70
2023-04-06T20:38:36.443Z,56.90
2023-04-06T20:41:05.064Z,56.80
2023-04-06T20:43:35.571Z,56.70
2023-04-06T20:46:04.257Z,56.80
2023-04-06T20:48:36.135Z,56.90
2023-04-06T20:51:06.632Z,57.10
2023-04-06T20:53:35.115Z,57.20
2023-04-06T20:56:03.978Z,57.30
2023-04-06T20:58:32.728Z,57.60
2023-04-06T21:01:01.284Z,57.50
2023-04-06T21:03:30.165Z,57.60
2023-04-06T21:05:59.968Z,57.90
2023-04-06T21:08:29.826Z,58.50
2023-04-06T21:10:58.313Z,58.80
2023-04-06T21:13:26.781Z,59.30
2023-04-06T21:15:56.283Z,59.90
2023-04-06T21:18:25.072Z,60.30
2023-04-06T21:20:53.788Z,60.40
2023-04-06T21:23:23.103Z,60.70
2023-04-06T21:25:55.375Z,61.00
2023-04-06T21:28:24.385Z,61.30
2023-04-06T21:30:53.129Z,61.50
2023-04-06T21:33:21.569Z,61.90
2023-04-06T21:35:50.554Z,62.30
2023-04-06T21:38:19.071Z,63.20
2023-04-06T21:40:56.595Z,63.80
2023-04-06T21:43:25.175Z,64.10
2023-04-06T21:45:53.854Z,64.20
2023-04-06T21:48:22.634Z,64.80
2023-04-06T21:50:51.294Z,65.30
2023-04-06T21:53:19.717Z,65.70
2023-04-06T21:55:48.594Z,65.80
2023-04-06T21:58:18.314Z,66.40
2023-04-06T22:00:46.720Z,66.90
2023-04-06T22:03:15.330Z,67.10
2023-04-06T22:05:43.856Z,67.00
2023-04-06T22:08:17.816Z,67.40
2023-04-06T22:10:53.987Z,67.60
2023-04-06T22:13:24.079Z,68.00
2023-04-06T22:15:52.684Z,68.10
2023-04-06T22:18:21.302Z,68.90
2023-04-06T22:20:51.127Z,69.40
2023-04-06T22:23:21.002Z,69.60
2023-04-06T22:25:49.521Z,70.00
2023-04-06T22:28:18.123Z,69.70
2023-04-06T22:30:47.934Z,70.30
2023-04-06T22:33:16.414Z,70.30
2023-04-06T22:35:44.932Z,71.00
2023-04-06T22:38:13.399Z,70.90
2023-04-06T22:40:41.812Z,71.00
2023-04-06T22:43:10.263Z,71.10
2023-04-06T22:45:38.782Z,71.30
2023-04-06T22:48:08.675Z,71.50
2023-04-06T22:50:37.202Z,71.60
2023-04-06T22:53:06.095Z,72.00
2023-04-06T22:55:34.498Z,72.20
2023-04-06T22:58:02.961Z,72.60
2023-04-06T23:00:31.554Z,72.60
2023-04-06T23:03:00.198Z,72.90
2023-04-06T23:05:30.159Z,73.10
2023-04-06T23:07:58.584Z,73.30
2023-04-06T23:10:27.060Z,73.20
2023-04-06T23:12:55.541Z,73.50
2023-04-06T23:15:24.024Z,73.60
2023-04-06T23:17:52.643Z,74.40
2023-04-06T23:20:22.347Z,74.10
2023-04-06T23:22:52.308Z,74.00
2023-04-06T23:25:21.288Z,74.10
2023-04-06T23:27:49.737Z,74.80
2023-04-06T23:30:18.302Z,74.60
2023-04-06T23:32:47.070Z,74.70
2023-04-06T23:35:15.735Z,75.30
2023-04-06T23:37:44.153Z,75.30
2023-04-06T23:40:14.424Z,76.00
2023-04-06T23:42:42.826Z,76.80
2023-04-06T23:45:11.971Z,76.90
2023-04-06T23:47:40.506Z,77.70
2023-04-06T23:50:10.250Z,78.10
2023-04-06T23:52:38.887Z,78.80
2023-04-06T23:55:08.141Z,78.90
2023-04-06T23:57:37.906Z,79.40
